Terminal Aerodrome Forecast
Issued by NWS

Home | Current Version | Previous Version | Graphics & Text | Print | Product List | Glossary On
Versions: 1 2 3 4 5 6 7 8 9 10 11 12 13 14 15 16
000
FTUS42 KMHX 301731
TAFOAJ
TAF
KOAJ 301731Z 3018/3118 06009KT P6SM OVC090
     FM302300 13010KT P6SM OVC080
     FM310800 15010KT 6SM -SHRA OVC050
     FM311100 15010KT 6SM -TSRA OVC025CB
     FM311200 16010KT 5SM TSRA OVC015CB
     FM311600 18010KT P6SM VCTS OVC025CB
      AMD LTD TO CLD VIS AND WIND=

USA.gov is the U.S. government's official web portal to all federal, state and local government web resources and services.